This is the latest recevied weather packets stored in our database for station/object N1IJV-10. If no packets are shown the sender has not sent any weather packets the latest 10 day(s).
| Time | Temp. | Humidity | Pressure | Rain* | Wind** | Luminosity | Snow |
|---|---|---|---|---|---|---|---|
| 1778054165 | 5° C | 72% | 1010.7 hPa | 0 mm | - | 0 W/m² | - |
| 1778053861 | 5° C | 71% | 1010.4 hPa | 0 mm | - | 0 W/m² | - |
| 1778053559 | 5° C | 70% | 1010.8 hPa | 0 mm | - | 0 W/m² | - |
| 1778053256 | 5.56° C | 70% | 1010.6 hPa | 0 mm | - | 0 W/m² | - |
| 1778052954 | 5.56° C | 69% | 1010.7 hPa | 0 mm | - | 0 W/m² | - |
| 1778052651 | 6.11° C | 69% | 1010.6 hPa | 0 mm | - | 0 W/m² | - |
| 1778052347 | 6.11° C | 67% | 1010.4 hPa | 0 mm | - | 0 W/m² | - |
| 1778052045 | 6.67° C | 64% | 1010.2 hPa | 0 mm | - | 0 W/m² | - |
| 1778051743 | 6.67° C | 61% | 1010.3 hPa | 0 mm | - | 0 W/m² | - |
| 1778051440 | 6.11° C | 64% | 1010.5 hPa | 0 mm | - | 0 W/m² | - |
| 1778051137 | 6.11° C | 67% | 1010.5 hPa | 0 mm | - | 0 W/m² | - |
| 1778050834 | 6.11° C | 66% | 1010.2 hPa | 0 mm | - | 0 W/m² | - |
| 1778050532 | 6.67° C | 65% | 1010.1 hPa | 0 mm | - | 0 W/m² | - |
| 1778050228 | 6.67° C | 64% | 1010.3 hPa | 0 mm | - | 0 W/m² | - |
| 1778049925 | 6.67° C | 64% | 1010.2 hPa | 0 mm | - | 0 W/m² | - |
| 1778049621 | 7.22° C | 62% | 1010.3 hPa | 0 mm | - | 0 W/m² | - |
| 1778049319 | 7.22° C | 61% | 1010.2 hPa | 0 mm | - | 0 W/m² | - |
| 1778049016 | 7.78° C | 60% | 1010.4 hPa | 0 mm | - | 0 W/m² | - |
| 1778048715 | 8.33° C | 59% | 1010.4 hPa | 0 mm | - | 0 W/m² | - |
| 1778048411 | 8.33° C | 58% | 1010.4 hPa | 0 mm | - | 0 W/m² | - |
| 1778048107 | 8.33° C | 56% | 1010.4 hPa | 0 mm | - | 0 W/m² | - |
| 1778047805 | 8.33° C | 56% | 1010.3 hPa | 0 mm | - | 0 W/m² | - |
| 1778047503 | 7.22° C | 61% | 1010.3 hPa | 0 mm | - | 0 W/m² | - |
| 1778047199 | 7.22° C | 64% | 1010.4 hPa | 0 mm | - | 0 W/m² | - |
| 1778046897 | 7.22° C | 63% | 1010.1 hPa | 0 mm | - | 0 W/m² | - |
* Rain latest hour (hover to see other rain measurements)
** Current wind speed in m/s (hover to see current wind gust speed)